Time;durP1;ratioP1;P1;durP2;ratioP2;P2;SDS_P1;SDS_P2;PMS_P1;PMS_P2;Temp;Humidity;BMP_temperature;BMP_pressure;BME280_temperature;BME280_humidity;BME280_pressure;Samples;Min_cycle;Max_cycle;Signal;HPM_P1;HPM_P2
2021/07/02 00:02:28;;;;;;;7.92;6.08;;;;;;;17.48;70.41;98534.25;2281291;77;21024;-82
2021/07/02 00:05:28;;;;;;;11.30;5.97;;;;;;;17.47;70.55;98532.51;2281654;78;20937;-80
2021/07/02 00:08:30;;;;;;;8.40;6.10;;;;;;;17.48;70.57;98535.56;2281558;77;21021;-80
2021/07/02 00:11:30;;;;;;;8.48;6.20;;;;;;;17.49;70.82;98535.98;2281661;78;20910;-82
2021/07/02 00:14:31;;;;;;;9.25;6.22;;;;;;;17.48;70.86;98540.84;2281700;77;20941;-81
2021/07/02 00:17:32;;;;;;;10.13;6.05;;;;;;;17.45;70.79;98540.45;2281715;78;20879;-80
2021/07/02 00:20:33;;;;;;;9.70;6.47;;;;;;;17.49;71.05;98544.77;2281526;77;20910;-81
2021/07/02 00:23:34;;;;;;;6.67;6.03;;;;;;;17.49;71.00;98545.22;2281602;78;20930;-81
2021/07/02 00:26:36;;;;;;;9.90;6.70;;;;;;;17.48;70.95;98544.36;2281215;78;21330;-81
2021/07/02 00:29:37;;;;;;;9.58;6.35;;;;;;;17.49;71.08;98543.91;2281850;78;21372;-80
2021/07/02 00:32:38;;;;;;;8.35;6.65;;;;;;;17.49;71.08;98534.67;2281410;78;20978;-80
2021/07/02 00:35:41;;;;;;;11.35;7.33;;;;;;;17.45;71.32;98528.58;2281608;78;20965;-81
2021/07/02 00:38:41;;;;;;;11.57;6.85;;;;;;;17.40;71.39;98529.58;2281618;77;20963;-81
2021/07/02 00:41:42;;;;;;;13.65;6.97;;;;;;;17.37;71.36;98533.60;2281714;78;21303;-82
2021/07/02 00:44:43;;;;;;;9.98;6.40;;;;;;;17.32;71.53;98532.80;2281565;77;20982;-79
2021/07/02 00:47:44;;;;;;;10.80;7.20;;;;;;;17.27;71.55;98535.52;2281612;77;20970;-81
2021/07/02 00:50:45;;;;;;;10.30;6.67;;;;;;;17.28;71.65;98531.11;2267617;77;21351;-78
2021/07/02 00:53:46;;;;;;;29.20;11.50;;;;;;;17.26;71.71;98525.00;2249584;79;21269;-78
2021/07/02 00:56:47;;;;;;;100.67;27.73;;;;;;;17.31;72.56;98525.78;2249606;79;20939;-79
2021/07/02 00:59:48;;;;;;;20.15;9.73;;;;;;;18.13;73.13;98525.34;2249599;79;20969;-78
2021/07/02 01:02:49;;;;;;;15.03;7.65;;;;;;;18.79;71.85;98524.64;2249403;79;20972;-79
2021/07/02 01:05:50;;;;;;;9.70;6.67;;;;;;;19.05;70.40;98521.30;2249344;79;20884;-80
2021/07/02 01:08:51;;;;;;;7.97;6.50;;;;;;;19.48;69.15;98532.03;2249187;79;20916;-79
2021/07/02 01:11:52;;;;;;;10.08;7.55;;;;;;;19.37;68.30;98532.34;2249938;79;20953;-78
2021/07/02 01:14:53;;;;;;;18.87;12.18;;;;;;;19.11;66.91;98526.91;2249843;79;20952;-79
2021/07/02 01:17:54;;;;;;;28.80;15.00;;;;;;;18.75;67.81;98521.67;2249783;79;20916;-80
2021/07/02 01:20:55;;;;;;;14.18;7.20;;;;;;;19.12;68.29;98514.09;2249662;79;20924;-78
2021/07/02 01:23:56;;;;;;;9.08;6.60;;;;;;;19.12;68.29;98514.09;2249651;79;20984;-78
2021/07/02 01:26:57;;;;;;;13.68;6.17;;;;;;;18.67;67.19;98519.67;2250021;79;21329;-80
2021/07/02 01:29:58;;;;;;;7.37;6.30;;;;;;;18.34;68.21;98518.27;2249911;79;20912;-79
2021/07/02 01:32:59;;;;;;;10.78;6.78;;;;;;;18.06;68.35;98511.88;2249567;79;20984;-80
2021/07/02 01:36:00;;;;;;;8.98;7.12;;;;;;;17.93;69.25;98513.93;2249855;79;20975;-77
2021/07/02 01:39:01;;;;;;;17.07;7.85;;;;;;;17.91;69.33;98518.83;2250007;79;20991;-78
2021/07/02 01:42:01;;;;;;;9.83;7.47;;;;;;;17.81;70.23;98520.36;2249883;79;20940;-79
2021/07/02 01:45:03;;;;;;;9.95;7.35;;;;;;;17.94;69.93;98524.91;2250081;79;20908;-79
2021/07/02 01:48:04;;;;;;;11.83;7.40;;;;;;;17.78;69.98;98525.70;2249385;79;20990;-79
2021/07/02 01:51:05;;;;;;;11.00;7.35;;;;;;;17.55;70.24;98515.20;2249696;77;20960;-80
2021/07/02 01:54:05;;;;;;;9.25;7.28;;;;;;;17.25;71.01;98515.35;2249912;79;20916;-79
2021/07/02 01:57:06;;;;;;;9.28;7.17;;;;;;;17.03;72.07;98519.73;2250341;79;20960;-78
2021/07/02 02:00:07;;;;;;;9.00;6.78;;;;;;;16.86;72.38;98519.17;2249484;79;20927;-79
2021/07/02 02:03:08;;;;;;;11.05;6.85;;;;;;;16.81;72.73;98517.08;2249498;79;20967;-79
2021/07/02 02:06:09;;;;;;;10.78;7.65;;;;;;;16.72;73.11;98514.16;2249363;79;20976;-79
2021/07/02 02:09:10;;;;;;;10.13;7.37;;;;;;;16.67;73.20;98516.45;2249684;79;20888;-79
2021/07/02 02:12:11;;;;;;;7.60;6.80;;;;;;;16.53;73.67;98518.85;2249962;79;20936;-80
2021/07/02 02:15:12;;;;;;;9.95;7.03;;;;;;;16.53;73.67;98518.85;2249817;79;20940;-79
2021/07/02 02:18:13;;;;;;;12.58;7.47;;;;;;;16.78;74.17;98520.64;2250099;79;21268;-79
2021/07/02 02:21:14;;;;;;;9.68;6.17;;;;;;;17.23;74.54;98526.38;2249924;79;21269;-80
2021/07/02 02:24:15;;;;;;;17.67;15.35;;;;;;;17.83;73.45;98529.11;2249698;79;20908;-80
2021/07/02 02:27:16;;;;;;;98.95;74.90;;;;;;;18.27;71.70;98531.66;2250420;79;20964;-79
2021/07/02 02:30:17;;;;;;;18.10;16.30;;;;;;;18.80;70.45;98527.70;2249890;79;21276;-79
2021/07/02 02:33:18;;;;;;;15.63;12.28;;;;;;;18.80;70.45;98527.70;2250077;79;21036;-79
2021/07/02 02:36:18;;;;;;;12.35;8.33;;;;;;;19.07;69.21;98530.06;2249581;79;20952;-80
2021/07/02 02:39:20;;;;;;;7.58;6.35;;;;;;;19.23;68.16;98535.83;2249788;79;20976;-80
2021/07/02 02:42:20;;;;;;;6.50;5.90;;;;;;;19.27;67.62;98538.81;2250068;79;20908;-79
2021/07/02 02:45:22;;;;;;;7.22;6.03;;;;;;;18.99;66.99;98525.44;2250500;79;20915;-78
2021/07/02 02:48:22;;;;;;;8.18;5.78;;;;;;;18.86;67.12;98535.47;2250203;79;20960;-79
2021/07/02 02:51:23;;;;;;;54.48;27.25;;;;;;;18.21;67.23;98530.48;2265061;77;20954;-79
2021/07/02 02:54:24;;;;;;;235.35;74.22;;;;;;;18.11;68.72;98534.62;2282262;78;21020;-79
2021/07/02 02:57:25;;;;;;;33.45;12.40;;;;;;;18.22;68.82;98537.05;2282125;78;20934;-79
2021/07/02 03:00:26;;;;;;;11.25;5.90;;;;;;;18.33;68.58;98536.80;2282528;78;20950;-79
2021/07/02 03:03:31;;;;;;;8.20;5.60;;;;;;;17.76;68.41;98531.92;2281866;78;21041;-79
2021/07/02 03:06:32;;;;;;;5.83;5.33;;;;;;;17.17;69.71;98538.79;2282077;77;20903;-79
2021/07/02 03:09:33;;;;;;;5.58;5.10;;;;;;;16.81;71.24;98546.94;2282122;77;20927;-79
2021/07/02 03:12:33;;;;;;;5.47;4.55;;;;;;;16.53;71.72;98540.38;2282408;77;20941;-79
2021/07/02 03:15:34;;;;;;;6.58;4.33;;;;;;;16.38;72.15;98549.37;2282408;77;20945;-79
2021/07/02 03:18:35;;;;;;;6.60;4.85;;;;;;;16.29;72.98;98551.28;2282065;78;20867;-80
2021/07/02 03:21:36;;;;;;;4.60;4.20;;;;;;;16.19;73.20;98558.45;2282219;77;20966;-79
2021/07/02 03:24:37;;;;;;;15.50;6.87;;;;;;;16.16;74.15;98559.81;2282204;77;21049;-79
2021/07/02 03:27:38;;;;;;;4.90;4.50;;;;;;;16.11;73.95;98561.64;2282184;77;20982;-78
2021/07/02 03:30:39;;;;;;;5.67;4.12;;;;;;;16.18;73.98;98565.92;2282110;78;20934;-81
2021/07/02 03:33:40;;;;;;;6.30;4.30;;;;;;;16.18;74.17;98565.92;2281651;77;21485;-79
2021/07/02 03:36:41;;;;;;;4.17;3.70;;;;;;;16.14;74.19;98573.00;2281798;77;21000;-79
2021/07/02 03:39:42;;;;;;;4.55;4.12;;;;;;;16.13;74.39;98566.00;2281709;77;20926;-81
2021/07/02 03:42:43;;;;;;;4.45;4.05;;;;;;;16.11;74.54;98566.91;2281460;78;20949;-80
2021/07/02 03:45:44;;;;;;;4.80;4.30;;;;;;;16.16;74.73;98572.98;2281834;77;20987;-80
2021/07/02 03:48:45;;;;;;;4.85;4.42;;;;;;;16.27;74.75;98576.32;2281482;77;20982;-79
2021/07/02 03:51:47;;;;;;;6.33;4.42;;;;;;;16.50;74.36;98581.27;2263450;77;20987;-80
2021/07/02 03:54:48;;;;;;;5.97;4.40;;;;;;;16.62;73.85;98585.47;2247734;79;20987;-79
2021/07/02 03:57:49;;;;;;;10.25;4.35;;;;;;;16.64;73.72;98588.95;2248729;79;20916;-79
2021/07/02 04:00:50;;;;;;;5.20;3.92;;;;;;;16.71;73.58;98584.89;2248891;79;21011;-78
2021/07/02 04:03:51;;;;;;;6.83;3.90;;;;;;;16.81;73.77;98589.11;2248908;79;20998;-79
2021/07/02 04:06:51;;;;;;;5.83;4.00;;;;;;;16.87;73.05;98586.82;2248913;79;20920;-79
2021/07/02 04:09:52;;;;;;;3.85;3.47;;;;;;;16.88;73.03;98599.97;2248408;79;20946;-80
2021/07/02 04:12:53;;;;;;;4.85;3.83;;;;;;;16.88;72.81;98593.83;2247677;79;20940;-78
2021/07/02 04:15:54;;;;;;;6.47;4.58;;;;;;;16.87;72.94;98593.41;2247751;79;20990;-82
2021/07/02 04:18:55;;;;;;;5.58;4.15;;;;;;;16.79;72.80;98597.94;2248499;79;20913;-80
2021/07/02 04:21:56;;;;;;;5.90;3.83;;;;;;;16.82;73.06;98607.98;2247995;79;20943;-78
2021/07/02 04:24:57;;;;;;;7.58;3.90;;;;;;;16.90;72.86;98605.67;2247988;79;20986;-79
2021/07/02 04:27:58;;;;;;;4.62;4.22;;;;;;;16.84;72.43;98605.33;2248372;79;21372;-79
2021/07/02 04:30:59;;;;;;;7.15;3.45;;;;;;;16.79;72.52;98610.67;2248584;79;20943;-79
2021/07/02 04:34:00;;;;;;;5.47;3.50;;;;;;;16.76;72.54;98609.86;2247813;79;21010;-79
2021/07/02 04:37:01;;;;;;;5.65;3.72;;;;;;;16.75;72.44;98614.26;2248712;79;20952;-79
2021/07/02 04:40:02;;;;;;;5.85;3.60;;;;;;;16.72;72.26;98610.80;2248342;79;20984;-78
2021/07/02 04:43:02;;;;;;;4.12;3.72;;;;;;;16.70;72.08;98612.59;2248103;79;20921;-79
2021/07/02 04:46:04;;;;;;;12.18;5.10;;;;;;;16.68;72.35;98615.70;2247992;79;20964;-79
2021/07/02 04:49:05;;;;;;;3.75;3.45;;;;;;;16.69;72.15;98615.67;2248025;79;21018;-78
2021/07/02 04:52:06;;;;;;;3.67;3.37;;;;;;;16.73;72.24;98630.55;2270767;77;20920;-78
2021/07/02 04:55:06;;;;;;;3.42;3.12;;;;;;;16.73;72.24;98630.55;2291073;78;20979;-80
2021/07/02 04:58:09;;;;;;;3.83;3.52;;;;;;;16.78;71.90;98624.75;2290576;78;20947;-79
2021/07/02 05:01:12;;;;;;;3.55;3.20;;;;;;;16.81;71.81;98621.19;2291242;78;20964;-79
2021/07/02 05:04:12;;;;;;;3.85;3.30;;;;;;;16.72;71.64;98625.30;2291149;78;21035;-80
2021/07/02 05:07:19;;;;;;;6.42;3.40;;;;;;;16.74;71.97;98624.38;2290875;78;20967;-79
2021/07/02 05:10:20;;;;;;;5.87;3.50;;;;;;;16.90;71.74;98623.67;2290813;78;21016;-80
2021/07/02 05:13:21;;;;;;;3.55;3.12;;;;;;;17.02;70.97;98622.14;2290883;78;20912;-79
2021/07/02 05:16:22;;;;;;;4.20;3.27;;;;;;;17.07;70.95;98618.11;2291489;78;20964;-79
2021/07/02 05:19:23;;;;;;;4.15;3.10;;;;;;;17.16;70.46;98624.09;2291775;78;20892;-79
2021/07/02 05:22:25;;;;;;;6.17;3.35;;;;;;;17.29;70.17;98623.86;2291886;78;20927;-80
2021/07/02 05:25:26;;;;;;;5.75;3.05;;;;;;;17.36;69.63;98615.84;2291149;78;20928;-78
2021/07/02 05:28:27;;;;;;;5.10;2.98;;;;;;;17.56;69.72;98602.70;2288498;78;20921;-81
2021/07/02 05:31:28;;;;;;;3.30;3.00;;;;;;;17.72;69.19;98603.71;2288615;78;20896;-80
2021/07/02 05:34:29;;;;;;;5.03;3.45;;;;;;;18.05;68.29;98600.80;2288623;78;21018;-81
2021/07/02 05:37:30;;;;;;;5.22;3.62;;;;;;;18.16;67.01;98615.09;2288877;78;20872;-79
2021/07/02 05:40:31;;;;;;;3.80;3.30;;;;;;;18.09;67.26;98612.17;2288048;78;20892;-79
2021/07/02 05:43:32;;;;;;;8.18;3.98;;;;;;;18.02;66.89;98602.19;2288696;78;20900;-79
2021/07/02 05:46:33;;;;;;;6.08;3.40;;;;;;;18.03;67.01;98611.85;2289302;78;20881;-79
2021/07/02 05:49:34;;;;;;;8.95;3.58;;;;;;;17.96;67.13;98619.94;2290085;78;20912;-79
2021/07/02 05:52:35;;;;;;;5.20;2.98;;;;;;;18.01;67.28;98610.14;2283261;77;20977;-79
2021/07/02 05:55:36;;;;;;;4.33;3.47;;;;;;;18.12;66.86;98608.14;2280305;78;21420;-78
2021/07/02 05:58:37;;;;;;;5.75;3.17;;;;;;;18.21;66.68;98609.73;2280807;78;20981;-78
2021/07/02 06:01:38;;;;;;;6.92;2.98;;;;;;;18.26;66.06;98609.19;2280660;77;21061;-81
2021/07/02 06:04:39;;;;;;;4.47;3.67;;;;;;;18.22;66.19;98608.38;2280254;78;21025;-79
2021/07/02 06:07:40;;;;;;;4.53;3.35;;;;;;;18.35;65.64;98613.80;2281304;77;20957;-79
2021/07/02 06:10:41;;;;;;;6.15;3.47;;;;;;;18.65;65.13;98616.66;2281069;78;20898;-79
2021/07/02 06:13:43;;;;;;;4.83;3.00;;;;;;;18.93;64.16;98619.49;2281130;77;20926;-81
2021/07/02 06:16:44;;;;;;;9.35;3.85;;;;;;;19.06;63.78;98623.56;2281303;77;21363;-80
2021/07/02 06:19:45;;;;;;;7.22;3.52;;;;;;;19.21;62.73;98622.33;2281132;78;20891;-80
2021/07/02 06:22:45;;;;;;;4.80;3.42;;;;;;;19.36;62.96;98621.91;2280108;77;20914;-77
2021/07/02 06:25:46;;;;;;;3.80;3.40;;;;;;;19.48;62.56;98624.23;2280423;78;20969;-79
2021/07/02 06:28:48;;;;;;;3.87;3.50;;;;;;;19.37;62.53;98622.33;2279783;78;21408;-78
2021/07/02 06:31:48;;;;;;;8.48;3.40;;;;;;;19.50;61.80;98617.56;2279593;78;21089;-78
2021/07/02 06:34:49;;;;;;;4.15;2.85;;;;;;;19.68;60.80;98615.30;2280097;77;21013;-79
2021/07/02 06:37:50;;;;;;;4.05;3.00;;;;;;;19.76;60.65;98611.11;2280019;78;20887;-78
2021/07/02 06:40:52;;;;;;;3.90;3.08;;;;;;;19.79;61.04;98609.70;2279406;77;21290;-78
2021/07/02 06:43:56;;;;;;;11.40;3.72;;;;;;;19.92;60.79;98610.21;2279502;78;20965;-78
2021/07/02 06:46:57;;;;;;;7.15;3.40;;;;;;;20.18;60.20;98614.30;2279754;78;21018;-80
2021/07/02 06:49:58;;;;;;;5.60;3.30;;;;;;;20.45;58.95;98610.42;2280419;78;20982;-79
2021/07/02 06:53:00;;;;;;;3.12;2.90;;;;;;;20.64;59.43;98604.94;2280668;77;20989;-79
2021/07/02 06:56:01;;;;;;;3.20;3.00;;;;;;;20.84;56.05;98603.85;2281206;77;20996;-78
2021/07/02 06:59:02;;;;;;;3.20;3.00;;;;;;;20.53;56.71;98601.30;2280688;77;21012;-79
2021/07/02 07:02:03;;;;;;;8.40;3.35;;;;;;;20.53;56.00;98612.37;2280957;78;20923;-79
2021/07/02 07:05:04;;;;;;;3.70;3.40;;;;;;;20.49;55.35;98602.31;2281126;77;21480;-79
2021/07/02 07:08:07;;;;;;;3.55;3.27;;;;;;;20.61;56.73;98597.95;2280647;78;20925;-80
2021/07/02 07:11:07;;;;;;;6.47;3.35;;;;;;;20.80;55.72;98588.06;2280431;77;20934;-80
2021/07/02 07:14:08;;;;;;;4.10;3.52;;;;;;;20.88;55.59;98594.88;2281109;78;20945;-80
2021/07/02 07:17:12;;;;;;;4.22;3.20;;;;;;;20.85;56.63;98589.67;2281261;77;20953;-79
2021/07/02 07:20:13;;;;;;;6.72;3.40;;;;;;;21.28;56.09;98584.24;2280927;78;20987;-78
2021/07/02 07:23:14;;;;;;;3.47;3.17;;;;;;;21.65;54.92;98580.25;2281457;77;20969;-79
2021/07/02 07:26:16;;;;;;;4.97;3.00;;;;;;;21.71;52.12;98574.75;2281621;77;20906;-80
2021/07/02 07:29:17;;;;;;;3.60;3.30;;;;;;;21.63;52.21;98583.83;2281681;77;21016;-79
2021/07/02 07:32:18;;;;;;;4.28;3.45;;;;;;;21.77;51.84;98570.53;2281802;78;20913;-80
2021/07/02 07:35:22;;;;;;;3.80;3.50;;;;;;;21.77;52.70;98571.86;2281765;77;21081;-79
2021/07/02 07:38:21;;;;;;;3.33;3.12;;;;;;;21.97;52.55;98581.27;2281389;78;21338;-80
2021/07/02 07:41:24;;;;;;;10.10;3.77;;;;;;;21.95;52.97;98576.47;2281580;78;21365;-78
2021/07/02 07:44:25;;;;;;;3.50;2.70;;;;;;;21.98;52.63;98575.03;2281577;77;21394;-79
2021/07/02 07:47:26;;;;;;;5.55;2.80;;;;;;;22.33;52.32;98575.02;2281303;77;21358;-80
2021/07/02 07:50:30;;;;;;;3.17;2.90;;;;;;;22.14;51.64;98576.20;2281702;78;20918;-79
2021/07/02 07:53:30;;;;;;;3.15;2.58;;;;;;;21.88;52.38;98576.30;2256182;77;20940;-78
2021/07/02 07:56:31;;;;;;;3.52;2.90;;;;;;;21.69;52.06;98578.79;2249535;79;21008;-77
2021/07/02 07:59:34;;;;;;;6.33;2.72;;;;;;;21.66;52.06;98580.20;2249058;79;20944;-78
2021/07/02 08:02:35;;;;;;;4.78;2.87;;;;;;;21.89;51.47;98576.70;2249234;79;21011;-79
2021/07/02 08:05:36;;;;;;;2.50;2.40;;;;;;;21.90;50.27;98571.34;2249141;79;20960;-79
2021/07/02 08:08:37;;;;;;;3.90;2.60;;;;;;;22.17;50.25;98568.56;2249466;79;21335;-79
2021/07/02 08:11:38;;;;;;;4.80;2.75;;;;;;;22.10;50.95;98577.24;2249418;79;20888;-78
2021/07/02 08:14:39;;;;;;;3.60;2.77;;;;;;;22.40;50.15;98566.33;2249354;79;21355;-79
2021/07/02 08:17:40;;;;;;;2.60;2.25;;;;;;;22.54;50.06;98568.86;2249014;79;20924;-80
2021/07/02 08:20:41;;;;;;;2.70;2.50;;;;;;;22.50;47.43;98575.66;2248861;79;21407;-81
2021/07/02 08:23:42;;;;;;;14.28;2.70;;;;;;;22.67;48.54;98567.02;2249552;79;20913;-79
2021/07/02 08:26:43;;;;;;;3.00;2.80;;;;;;;22.59;48.89;98581.97;2249244;79;20940;-80
2021/07/02 08:29:44;;;;;;;2.35;2.15;;;;;;;22.77;49.30;98579.02;2249268;79;20956;-78
2021/07/02 08:32:45;;;;;;;2.83;2.40;;;;;;;22.94;49.52;98567.69;2249487;79;21347;-79
2021/07/02 08:35:46;;;;;;;2.65;2.50;;;;;;;22.91;49.51;98574.48;2249400;79;20996;-79
2021/07/02 08:38:47;;;;;;;3.98;2.85;;;;;;;22.80;49.33;98569.61;2249003;79;20982;-79
2021/07/02 08:41:48;;;;;;;4.15;2.90;;;;;;;22.34;48.82;98583.39;2248704;79;20912;-79
2021/07/02 08:44:49;;;;;;;7.10;2.65;;;;;;;22.23;49.35;98578.50;2248970;79;20955;-79
2021/07/02 08:47:50;;;;;;;2.92;2.72;;;;;;;22.60;49.15;98580.17;2249297;79;20927;-79
2021/07/02 08:50:51;;;;;;;64.58;5.65;;;;;;;22.97;48.02;98573.75;2249634;79;21615;-78
2021/07/02 08:53:52;;;;;;;5.40;2.90;;;;;;;23.07;47.57;98577.75;2283260;77;21055;-79
2021/07/02 08:56:56;;;;;;;6.62;3.20;;;;;;;23.05;47.04;98588.93;2291224;78;20983;-80
2021/07/02 08:59:57;;;;;;;2.70;2.50;;;;;;;22.85;48.31;98573.80;2291386;78;20964;-79
2021/07/02 09:02:58;;;;;;;5.03;3.02;;;;;;;22.65;49.12;98592.36;2290396;77;20943;-84
2021/07/02 09:05:59;;;;;;;6.28;3.12;;;;;;;22.73;48.81;98589.38;2293137;77;20915;-82
2021/07/02 09:09:01;;;;;;;3.37;2.70;;;;;;;22.86;49.13;98582.66;2291301;78;20939;-82
2021/07/02 09:12:03;;;;;;;3.47;2.77;;;;;;;22.96;47.17;98589.33;2291600;78;21373;-82
2021/07/02 09:15:07;;;;;;;2.87;2.67;;;;;;;23.12;46.83;98591.73;2291383;78;20935;-83
2021/07/02 09:18:12;;;;;;;3.12;2.92;;;;;;;23.61;47.42;98597.64;2291216;78;20965;-81
2021/07/02 09:21:12;;;;;;;9.80;6.67;;;;;;;23.88;45.79;98602.19;2291620;78;21410;-80
2021/07/02 09:24:14;;;;;;;3.98;3.20;;;;;;;24.11;45.95;98599.31;2291050;78;20943;-81
2021/07/02 09:27:15;;;;;;;5.33;2.70;;;;;;;24.13;45.15;98600.11;2290566;78;21008;-81
2021/07/02 09:30:18;;;;;;;3.25;2.60;;;;;;;24.12;45.12;98605.05;2290654;78;20893;-81
2021/07/02 09:33:19;;;;;;;4.62;2.87;;;;;;;24.14;45.56;98604.50;2290979;78;20975;-81
2021/07/02 09:36:20;;;;;;;4.55;3.10;;;;;;;24.17;45.95;98598.63;2291594;78;20942;-82
2021/07/02 09:39:20;;;;;;;6.50;2.80;;;;;;;24.34;45.38;98606.77;2291848;78;20920;-81
2021/07/02 09:42:21;;;;;;;6.05;2.90;;;;;;;24.22;45.83;98600.15;2291649;78;20915;-83
2021/07/02 09:45:22;;;;;;;4.17;2.17;;;;;;;24.46;45.42;98607.52;2291791;78;21300;-82
2021/07/02 09:48:24;;;;;;;6.35;2.80;;;;;;;24.82;44.83;98596.84;2291965;78;20916;-80
2021/07/02 09:51:25;;;;;;;3.55;2.40;;;;;;;24.68;43.76;98590.85;2291901;78;20865;-82
2021/07/02 09:54:26;;;;;;;4.90;2.65;;;;;;;24.95;43.23;98585.94;2282686;77;20970;-82
2021/07/02 09:57:26;;;;;;;4.25;2.80;;;;;;;24.78;43.23;98588.12;2281992;78;21381;-81
2021/07/02 10:00:27;;;;;;;3.65;2.33;;;;;;;24.41;43.68;98593.53;2282152;78;21345;-81
2021/07/02 10:03:28;;;;;;;4.15;2.83;;;;;;;24.73;44.57;98577.28;2282021;77;20981;-82
2021/07/02 10:06:30;;;;;;;5.37;2.67;;;;;;;24.90;43.62;98582.64;2281744;78;21302;-82
2021/07/02 10:09:31;;;;;;;2.37;2.22;;;;;;;25.15;43.59;98576.98;2281092;77;21307;-81
2021/07/02 10:12:32;;;;;;;3.12;2.70;;;;;;;25.14;43.22;98579.22;2281644;77;21294;-81
2021/07/02 10:15:33;;;;;;;5.20;2.75;;;;;;;24.91;42.59;98579.50;2281953;78;20927;-82
2021/07/02 10:18:34;;;;;;;5.70;2.60;;;;;;;24.85;42.78;98579.81;2282263;77;20978;-81
2021/07/02 10:21:35;;;;;;;5.95;2.52;;;;;;;24.82;43.15;98579.96;2281876;78;20917;-81
2021/07/02 10:24:36;;;;;;;2.47;2.37;;;;;;;24.92;43.75;98575.89;2281338;78;20902;-82
2021/07/02 10:27:41;;;;;;;3.85;2.50;;;;;;;25.19;41.82;98581.22;2281342;77;21032;-80
2021/07/02 10:30:42;;;;;;;3.60;2.50;;;;;;;25.14;42.62;98581.03;2281811;78;20961;-81
2021/07/02 10:33:43;;;;;;;2.62;2.42;;;;;;;24.89;42.68;98584.92;2281634;78;20950;-81
2021/07/02 10:36:44;;;;;;;2.50;2.40;;;;;;;24.64;42.34;98590.61;2281915;78;21009;-82
2021/07/02 10:39:46;;;;;;;8.25;3.98;;;;;;;24.40;43.44;98590.00;2281559;77;20902;-81
2021/07/02 10:42:48;;;;;;;3.72;3.02;;;;;;;24.24;43.74;98586.73;2281899;77;20962;-81
2021/07/02 10:45:49;;;;;;;2.77;2.58;;;;;;;24.32;43.98;98592.17;2281342;78;20974;-81
2021/07/02 10:48:50;;;;;;;7.20;2.90;;;;;;;24.57;43.87;98580.31;2280886;77;20898;-79
2021/07/02 10:51:51;;;;;;;3.12;2.70;;;;;;;25.04;43.21;98579.30;2280282;77;20931;-80
2021/07/02 10:54:52;;;;;;;3.10;2.60;;;;;;;25.45;43.17;98578.53;2248752;77;21007;-82
2021/07/02 10:57:53;;;;;;;4.97;2.42;;;;;;;25.90;41.28;98577.91;2248982;79;20889;-80
2021/07/02 11:00:54;;;;;;;10.08;2.75;;;;;;;25.40;40.81;98572.09;2248632;79;21003;-82
2021/07/02 11:03:55;;;;;;;6.00;5.47;;;;;;;24.87;41.87;98575.26;2247754;79;21157;-79
2021/07/02 11:06:57;;;;;;;5.15;3.80;;;;;;;24.62;42.33;98577.81;2247969;79;21769;-80
2021/07/02 11:09:58;;;;;;;3.02;2.52;;;;;;;24.73;43.06;98575.95;2248654;79;20912;-80
2021/07/02 11:12:59;;;;;;;2.70;2.50;;;;;;;24.92;42.31;98570.55;2248691;79;21332;-80
2021/07/02 11:16:00;;;;;;;3.92;2.50;;;;;;;25.02;42.10;98574.04;2248413;79;20948;-79
2021/07/02 11:19:01;;;;;;;2.92;2.35;;;;;;;24.86;41.88;98582.87;2249261;79;21082;-79
2021/07/02 11:22:02;;;;;;;4.33;2.75;;;;;;;24.66;42.41;98590.53;2249217;79;21320;-78
2021/07/02 11:25:03;;;;;;;2.60;2.40;;;;;;;24.43;42.54;98580.98;2249129;79;20924;-80
2021/07/02 11:28:25;;;;;;;2.50;2.40;;;;;;;24.50;42.30;98580.22;2248677;79;21301;-78
2021/07/02 11:31:11;;;;;;;5.83;2.80;;;;;;;24.82;42.27;98569.28;2245490;79;20956;-77
2021/07/02 11:34:09;;;;;;;2.77;2.57;;;;;;;25.35;41.90;98571.47;2248776;79;20995;-78
2021/07/02 11:37:14;;;;;;;3.40;2.50;;;;;;;25.83;40.78;98564.95;2249155;79;21360;-77
2021/07/02 11:40:15;;;;;;;4.67;2.83;;;;;;;25.81;41.28;98564.17;2249075;79;20964;-78
2021/07/02 11:43:16;;;;;;;6.72;2.60;;;;;;;25.43;41.52;98567.53;2249283;79;20909;-79
2021/07/02 11:46:17;;;;;;;2.92;2.67;;;;;;;24.93;42.49;98570.47;2249362;79;20959;-80
2021/07/02 11:49:18;;;;;;;3.10;2.80;;;;;;;24.58;43.42;98572.70;2249369;79;20917;-79
2021/07/02 11:52:20;;;;;;;2.83;2.62;;;;;;;24.37;43.95;98575.95;2251141;78;21007;-80
2021/07/02 11:55:22;;;;;;;3.43;2.60;;;;;;;24.25;44.12;98571.13;2291464;78;21011;-78
2021/07/02 11:58:23;;;;;;;10.50;2.98;;;;;;;24.09;43.50;98566.53;2291423;78;20999;-79
2021/07/02 12:01:26;;;;;;;5.90;2.87;;;;;;;24.01;44.01;98564.69;2291286;78;20980;-79
2021/07/02 12:04:31;;;;;;;2.77;2.58;;;;;;;24.17;44.26;98567.50;2292081;77;20982;-81
2021/07/02 12:07:30;;;;;;;4.27;2.67;;;;;;;24.45;43.96;98559.96;2291110;77;21359;-80
2021/07/02 12:10:31;;;;;;;7.40;2.72;;;;;;;24.62;43.41;98555.13;2291474;78;20909;-79
2021/07/02 12:13:32;;;;;;;2.70;2.50;;;;;;;24.72;43.04;98549.72;2290466;78;21356;-78
2021/07/02 12:16:33;;;;;;;2.80;2.60;;;;;;;24.78;42.43;98551.22;2290647;78;20943;-80
2021/07/02 12:19:34;;;;;;;2.83;2.62;;;;;;;24.72;42.33;98558.20;2290508;78;20947;-81
2021/07/02 12:22:35;;;;;;;4.17;2.67;;;;;;;24.48;42.95;98557.61;2290792;78;21134;-82
2021/07/02 12:25:36;;;;;;;4.53;2.27;;;;;;;24.40;41.94;98552.66;2291252;78;21352;-81
2021/07/02 12:28:37;;;;;;;4.00;2.55;;;;;;;24.46;41.82;98554.16;2291168;78;20924;-81
2021/07/02 12:31:38;;;;;;;5.90;2.60;;;;;;;24.45;42.15;98553.77;2291329;78;21329;-81
2021/07/02 12:34:41;;;;;;;2.85;2.65;;;;;;;24.60;42.42;98554.34;2291323;78;20983;-80
2021/07/02 12:37:43;;;;;;;;;;;;;;;25.21;41.83;98543.28;2294113;78;20968;-82
2021/07/02 12:40:44;;;;;;;4.20;2.37;;;;;;;25.57;41.14;98546.28;2291049;78;20121;-80
2021/07/02 12:43:45;;;;;;;8.65;2.62;;;;;;;25.74;41.59;98536.05;2291006;78;20911;-80
2021/07/02 12:46:46;;;;;;;2.72;2.52;;;;;;;25.71;40.23;98545.09;2290787;78;20884;-80
2021/07/02 12:49:47;;;;;;;2.70;2.50;;;;;;;25.40;40.96;98544.03;2290699;78;20911;-80
2021/07/02 12:55:51;;;;;;;8.80;2.40;;;;;;;25.23;41.13;98536.52;2278347;78;21358;-80
2021/07/02 12:58:52;;;;;;;2.67;2.52;;;;;;;25.40;40.61;98536.02;2281386;77;20886;-81
2021/07/02 13:01:53;;;;;;;3.70;2.20;;;;;;;25.50;40.52;98525.70;2281535;77;21349;-82
2021/07/02 13:04:54;;;;;;;3.25;2.67;;;;;;;25.73;41.13;98528.50;2281597;78;20978;-80
2021/07/02 13:07:55;;;;;;;7.25;3.08;;;;;;;25.54;41.12;98530.41;2281883;78;20894;-81
2021/07/02 13:10:57;;;;;;;5.62;3.08;;;;;;;25.29;41.68;98540.20;2281537;78;20934;-81
2021/07/02 13:13:58;;;;;;;3.27;2.77;;;;;;;24.80;42.40;98541.80;2281158;77;20981;-82
2021/07/02 13:16:59;;;;;;;4.40;2.55;;;;;;;24.50;43.10;98536.20;2281061;78;20937;-80
2021/07/02 13:20:00;;;;;;;6.87;3.00;;;;;;;24.50;43.28;98533.05;2281293;78;20894;-82
2021/07/02 13:23:01;;;;;;;21.02;3.22;;;;;;;24.62;43.43;98528.44;2281140;78;20949;-80
2021/07/02 13:26:02;;;;;;;2.72;2.50;;;;;;;24.56;42.71;98530.55;2280698;78;21139;-80
2021/07/02 13:29:04;;;;;;;6.85;3.00;;;;;;;24.64;43.20;98527.03;2280684;77;21001;-80
2021/07/02 13:32:06;;;;;;;8.03;3.70;;;;;;;24.90;42.68;98527.05;2280681;77;20958;-80
2021/07/02 13:35:07;;;;;;;3.72;2.72;;;;;;;25.15;42.37;98528.91;2280648;78;21026;-81
2021/07/02 13:38:08;;;;;;;5.37;2.33;;;;;;;25.58;41.23;98520.81;2280843;78;20945;-80
2021/07/02 13:41:09;;;;;;;2.55;2.35;;;;;;;26.00;40.14;98520.29;2281502;77;20918;-81
2021/07/02 13:44:10;;;;;;;2.92;2.70;;;;;;;26.05;40.05;98524.55;2281516;78;20929;-80
2021/07/02 13:47:12;;;;;;;30.02;3.20;;;;;;;25.81;40.09;98516.91;2281568;77;20949;-81
2021/07/02 13:50:20;;;;;;;5.30;2.55;;;;;;;25.60;40.76;98515.37;2281753;77;20998;-81
2021/07/02 13:53:22;;;;;;;2.70;2.42;;;;;;;25.42;41.11;98521.72;2273902;77;21398;-81
2021/07/02 13:56:22;;;;;;;2.92;2.52;;;;;;;25.41;40.50;98523.52;2249354;79;21364;-80
2021/07/02 13:59:23;;;;;;;4.83;2.72;;;;;;;25.45;40.66;98525.56;2249481;79;20992;-81
2021/07/02 14:02:27;;;;;;;3.70;2.77;;;;;;;25.40;40.76;98519.98;2248844;79;20900;-81
2021/07/02 14:05:28;;;;;;;2.80;2.60;;;;;;;25.41;41.25;98510.17;2249226;79;21020;-81
2021/07/02 14:08:29;;;;;;;2.50;2.30;;;;;;;25.45;41.58;98514.40;2249446;79;20912;-81
2021/07/02 14:11:30;;;;;;;6.55;2.60;;;;;;;25.67;40.32;98521.67;2249439;79;21293;-81
2021/07/02 14:14:31;;;;;;;2.30;2.20;;;;;;;25.48;39.82;98518.72;2249572;79;21295;-78